Time;durP1;ratioP1;P1;durP2;ratioP2;P2;SDS_P1;SDS_P2;PMS_P1;PMS_P2;Temp;Humidity;BMP_temperature;BMP_pressure;BME280_temperature;BME280_humidity;BME280_pressure;Samples;Min_cycle;Max_cycle;Signal;HPM_P1;HPM_P2
2022/06/13 00:01:28;;;;;;;7.08;6.33;;;;;;;14.94;89.69;94719.81;1767250;81;20941;-53
2022/06/13 00:03:56;;;;;;;6.78;6.00;;;;;;;14.92;90.09;94724.29;1746591;81;20946;-54
2022/06/13 00:06:25;;;;;;;8.50;6.40;;;;;;;14.83;90.14;94722.36;1746370;81;21470;-54
2022/06/13 00:08:55;;;;;;;9.73;7.15;;;;;;;14.75;90.49;94721.22;1767255;80;21466;-54
2022/06/13 00:11:26;;;;;;;13.68;6.53;;;;;;;14.69;91.10;94728.66;1746088;80;21063;-54
2022/06/13 00:13:54;;;;;;;7.90;6.87;;;;;;;14.68;91.76;94727.13;1767506;80;20950;-54
2022/06/13 00:16:22;;;;;;;11.55;7.40;;;;;;;14.66;91.80;94724.67;1767241;80;20945;-54
2022/06/13 00:18:51;;;;;;;6.65;6.15;;;;;;;14.58;91.86;94720.12;1767249;80;20974;-53
2022/06/13 00:21:26;;;;;;;6.50;5.90;;;;;;;14.55;91.84;94721.67;1746358;81;22149;-54
2022/06/13 00:23:54;;;;;;;8.65;5.62;;;;;;;14.47;91.23;94717.75;1767265;81;20965;-54
2022/06/13 00:26:23;;;;;;;12.60;6.28;;;;;;;14.39;91.07;94724.86;1746358;81;20977;-54
2022/06/13 00:28:53;;;;;;;7.45;6.55;;;;;;;14.35;91.14;94719.37;1746113;81;21469;-54
2022/06/13 00:31:21;;;;;;;6.28;5.67;;;;;;;14.32;91.05;94711.39;1767629;80;21493;-53
2022/06/13 00:33:50;;;;;;;7.33;6.03;;;;;;;14.28;91.21;94708.65;1767500;81;21154;-54
2022/06/13 00:36:18;;;;;;;6.55;5.90;;;;;;;14.25;91.43;94712.36;1767130;81;21036;-54
2022/06/13 00:38:48;;;;;;;11.12;6.22;;;;;;;14.25;91.32;94705.44;1767584;80;21026;-54
2022/06/13 00:41:29;;;;;;;8.65;5.87;;;;;;;14.20;91.26;94703.33;1767586;80;20957;-54
2022/06/13 00:43:56;;;;;;;7.30;6.60;;;;;;;14.17;91.54;94708.43;1767312;80;20929;-54
2022/06/13 00:46:33;;;;;;;7.58;6.22;;;;;;;14.17;91.61;94709.81;1767187;80;21155;-54
2022/06/13 00:49:04;;;;;;;11.75;6.10;;;;;;;14.13;91.18;94704.41;1767030;81;20991;-53
2022/06/13 00:51:36;;;;;;;10.70;6.70;;;;;;;14.07;91.23;94703.54;1767311;80;21418;-53
2022/06/13 00:54:04;;;;;;;10.25;7.53;;;;;;;14.03;91.76;94702.92;1748044;80;20981;-55
2022/06/13 00:56:33;;;;;;;14.45;7.28;;;;;;;14.01;92.34;94704.02;1747282;80;21001;-55
2022/06/13 00:59:04;;;;;;;11.57;7.22;;;;;;;14.01;92.74;94699.12;1750773;81;21616;-53
2022/06/13 01:01:33;;;;;;;7.12;6.37;;;;;;;13.96;92.85;94706.05;1772301;79;21414;-54
2022/06/13 01:04:03;;;;;;;6.10;5.50;;;;;;;13.96;93.17;94705.30;1772201;81;21032;-54
2022/06/13 01:06:32;;;;;;;7.35;5.70;;;;;;;13.93;92.43;94700.68;1772367;81;21025;-54
2022/06/13 01:09:03;;;;;;;11.10;5.78;;;;;;;13.86;92.16;94702.42;1772119;80;20978;-54
2022/06/13 01:11:31;;;;;;;6.92;5.90;;;;;;;13.79;91.89;94709.05;1751296;81;21011;-54
2022/06/13 01:14:22;;;;;;;10.20;5.30;;;;;;;13.71;91.71;94700.19;1772339;79;20977;-55
2022/06/13 01:17:22;;;;;;;6.30;5.70;;;;;;;13.67;92.13;94703.75;1772104;80;20993;-53
2022/06/13 01:20:10;;;;;;;9.63;6.12;;;;;;;13.69;92.51;94706.80;1772410;81;21496;-53
2022/06/13 01:23:00;;;;;;;8.00;6.15;;;;;;;13.68;92.23;94703.89;1772061;80;21421;-54
2022/06/13 01:26:05;;;;;;;8.08;6.47;;;;;;;13.64;92.14;94706.06;1772156;80;21461;-54
2022/06/13 01:29:05;;;;;;;12.40;5.25;;;;;;;13.63;92.40;94703.16;1772065;81;21493;-53
2022/06/13 01:32:03;;;;;;;5.62;5.22;;;;;;;13.60;91.85;94696.55;1772297;80;21067;-54
2022/06/13 01:35:07;;;;;;;8.15;5.95;;;;;;;13.56;91.53;94702.09;1772175;80;20946;-55
2022/06/13 01:38:12;;;;;;;8.08;6.33;;;;;;;13.52;91.50;94694.59;1768230;81;20989;-54
2022/06/13 01:40:57;;;;;;;15.13;6.12;;;;;;;13.50;91.55;94705.34;1772114;81;21773;-54
2022/06/13 01:43:49;;;;;;;15.88;6.08;;;;;;;13.44;91.41;94703.08;1772222;79;21009;-53
2022/06/13 01:46:46;;;;;;;8.68;7.58;;;;;;;13.39;91.65;94700.92;1772083;79;21032;-54
2022/06/13 01:49:34;;;;;;;9.60;7.12;;;;;;;13.35;91.99;94697.57;1703329;84;21045;-54
2022/06/13 01:52:13;;;;;;;18.75;6.97;;;;;;;13.30;92.37;94689.28;1703327;82;21026;-53
2022/06/13 01:55:05;;;;;;;7.65;6.20;;;;;;;13.24;92.34;94689.03;1750216;80;21164;-53
2022/06/13 01:57:38;;;;;;;8.68;5.50;;;;;;;13.20;92.33;94689.78;1772173;80;21098;-55
2022/06/13 02:00:15;;;;;;;8.63;5.33;;;;;;;13.20;92.30;94692.55;1750887;81;20993;-53
2022/06/13 02:03:14;;;;;;;11.45;7.22;;;;;;;13.22;91.93;94695.61;1772326;80;20945;-53
2022/06/13 02:05:57;;;;;;;6.90;6.30;;;;;;;13.21;91.82;94699.00;1765319;80;20950;-53
2022/06/13 02:08:44;;;;;;;9.35;6.80;;;;;;;13.25;92.08;94706.50;1772498;81;21110;-53
2022/06/13 02:11:27;;;;;;;7.33;6.42;;;;;;;13.29;92.25;94701.57;1732740;81;21005;-54
2022/06/13 02:14:17;;;;;;;7.50;6.67;;;;;;;13.34;92.23;94696.82;1755475;80;20982;-54
2022/06/13 02:17:13;;;;;;;9.88;6.58;;;;;;;13.31;91.83;94691.45;1772292;80;20946;-53
2022/06/13 02:19:59;;;;;;;9.38;5.70;;;;;;;13.23;91.76;94695.78;1772396;80;20913;-54
2022/06/13 02:22:43;;;;;;;6.78;6.08;;;;;;;13.14;91.99;94696.58;1772447;81;21814;-54
2022/06/13 02:25:34;;;;;;;13.22;8.58;;;;;;;13.10;92.30;94700.72;1772441;79;21429;-54
2022/06/13 02:28:07;;;;;;;11.08;7.60;;;;;;;13.06;92.98;94700.12;1760505;79;21047;-53
2022/06/13 02:30:42;;;;;;;9.20;7.22;;;;;;;13.04;93.90;94695.68;1772717;81;21410;-54
2022/06/13 02:33:19;;;;;;;9.25;7.20;;;;;;;13.02;94.21;94689.83;1772290;79;20953;-54
2022/06/13 02:35:52;;;;;;;12.00;7.12;;;;;;;13.02;94.27;94699.49;1750441;81;21962;-54
2022/06/13 02:38:27;;;;;;;10.48;8.10;;;;;;;13.01;94.07;94699.34;1772155;81;20978;-54
2022/06/13 02:41:00;;;;;;;8.45;6.55;;;;;;;12.96;94.06;94702.73;1772616;81;21401;-54
2022/06/13 02:43:44;;;;;;;6.20;5.58;;;;;;;12.92;94.12;94699.34;1771948;80;21028;-54
2022/06/13 02:46:23;;;;;;;11.85;5.78;;;;;;;12.89;93.92;94696.88;1772239;80;20941;-55
2022/06/13 02:48:57;;;;;;;6.22;5.62;;;;;;;12.87;93.92;94680.65;1772140;79;21080;-54
2022/06/13 02:51:40;;;;;;;6.47;5.50;;;;;;;12.90;93.98;94683.86;1772582;81;21059;-54
2022/06/13 02:54:33;;;;;;;12.07;7.05;;;;;;;12.95;93.81;94687.41;1774934;80;21075;-54
2022/06/13 02:57:40;;;;;;;12.25;7.50;;;;;;;12.92;93.41;94680.80;1731990;80;21173;-53
2022/06/13 03:00:24;;;;;;;8.40;7.12;;;;;;;12.89;93.74;94683.70;1678865;84;21636;-56
2022/06/13 03:03:15;;;;;;;8.68;7.05;;;;;;;12.90;94.11;94688.75;1750104;80;21248;-54
2022/06/13 03:06:00;;;;;;;11.08;7.75;;;;;;;12.92;94.10;94693.83;1745689;81;20934;-54
2022/06/13 03:08:42;;;;;;;10.13;7.95;;;;;;;12.91;93.94;94695.05;1767247;80;20982;-53
2022/06/13 03:11:22;;;;;;;11.33;7.83;;;;;;;12.85;93.83;94688.00;1767003;81;20989;-53
2022/06/13 03:14:04;;;;;;;8.88;6.40;;;;;;;12.78;93.90;94683.41;1767431;81;21501;-54
2022/06/13 03:17:11;;;;;;;7.40;6.47;;;;;;;12.74;93.85;94685.56;1757068;81;21781;-53
2022/06/13 03:19:48;;;;;;;10.30;8.08;;;;;;;12.70;94.15;94687.73;1767296;81;21025;-54
2022/06/13 03:22:32;;;;;;;10.15;6.80;;;;;;;12.69;94.62;94687.58;1767301;79;20966;-54
2022/06/13 03:25:43;;;;;;;7.42;6.58;;;;;;;12.69;94.37;94691.72;1747267;81;21528;-54
2022/06/13 03:28:19;;;;;;;7.80;5.72;;;;;;;12.63;94.11;94690.78;1767363;81;20993;-53
2022/06/13 03:31:01;;;;;;;7.85;6.25;;;;;;;12.58;94.08;94692.78;1767621;81;21084;-53
2022/06/13 03:33:42;;;;;;;7.80;6.17;;;;;;;12.55;94.37;94694.46;1767123;80;21461;-53
2022/06/13 03:36:28;;;;;;;8.93;6.67;;;;;;;12.57;94.76;94696.14;1767345;81;21040;-54
2022/06/13 03:39:07;;;;;;;10.63;6.85;;;;;;;12.59;95.10;94697.08;1767601;80;20974;-54
2022/06/13 03:41:38;;;;;;;8.05;5.87;;;;;;;12.64;95.49;94693.69;1767404;79;20969;-53
2022/06/13 03:44:42;;;;;;;7.33;5.72;;;;;;;12.70;95.73;94684.97;1767236;81;21228;-53
2022/06/13 03:47:29;;;;;;;8.73;5.80;;;;;;;12.78;95.85;94686.17;1767366;79;21283;-54
2022/06/13 03:50:02;;;;;;;8.50;6.20;;;;;;;12.88;96.04;94689.83;1767191;80;20970;-54
2022/06/13 03:52:31;;;;;;;7.70;6.30;;;;;;;12.98;96.05;94690.01;1767602;81;21048;-53
2022/06/13 03:55:16;;;;;;;8.83;5.53;;;;;;;13.09;95.98;94693.03;1774703;80;20957;-53
2022/06/13 03:58:10;;;;;;;6.00;5.37;;;;;;;13.20;95.93;94692.55;1786930;80;21083;-54
2022/06/13 04:00:46;;;;;;;14.45;6.65;;;;;;;13.30;95.39;94691.30;1785631;79;21020;-54
2022/06/13 04:03:14;;;;;;;11.00;6.90;;;;;;;13.38;95.48;94698.02;1753144;80;20954;-53
2022/06/13 04:06:04;;;;;;;9.55;6.05;;;;;;;13.46;95.29;94690.94;1772142;79;20966;-53
2022/06/13 04:08:35;;;;;;;7.25;5.30;;;;;;;13.60;95.17;94691.66;1769083;79;20953;-55
2022/06/13 04:11:24;;;;;;;15.43;6.20;;;;;;;13.74;94.76;94690.34;1772316;81;21243;-53
2022/06/13 04:14:31;;;;;;;7.08;6.25;;;;;;;13.87;94.70;94692.89;1772378;80;21417;-54
2022/06/13 04:17:06;;;;;;;6.40;5.80;;;;;;;14.02;93.90;94692.34;1772138;81;20977;-53
2022/06/13 04:19:57;;;;;;;6.10;5.50;;;;;;;14.14;93.23;94689.98;1771335;80;20954;-54
2022/06/13 04:22:42;;;;;;;6.42;5.62;;;;;;;14.27;92.99;94687.75;1772184;79;20989;-54
2022/06/13 04:25:35;;;;;;;9.33;6.08;;;;;;;14.42;92.39;94689.95;1772106;79;21262;-53
2022/06/13 04:28:42;;;;;;;12.85;7.05;;;;;;;14.52;91.82;94686.03;1772098;81;20946;-54
2022/06/13 04:31:11;;;;;;;7.97;7.17;;;;;;;14.60;91.77;94682.28;1772396;80;20986;-55
2022/06/13 04:33:45;;;;;;;7.75;6.95;;;;;;;14.76;91.04;94682.58;1772098;79;20989;-55
2022/06/13 04:36:14;;;;;;;8.38;6.47;;;;;;;14.89;90.84;94685.08;1772586;81;21095;-54
2022/06/13 04:38:45;;;;;;;9.13;6.22;;;;;;;15.09;90.70;94681.81;1772174;81;21355;-54
2022/06/13 04:41:13;;;;;;;6.95;6.22;;;;;;;15.27;89.92;94682.22;1772069;80;20945;-52
2022/06/13 04:43:45;;;;;;;9.25;6.35;;;;;;;15.44;89.56;94675.76;1772150;79;21126;-53
2022/06/13 04:46:21;;;;;;;6.20;5.30;;;;;;;15.60;88.82;94672.48;1772535;81;20954;-54
2022/06/13 04:48:51;;;;;;;5.80;5.30;;;;;;;15.74;86.90;94675.83;1772071;80;21005;-55
2022/06/13 04:51:23;;;;;;;9.10;5.20;;;;;;;15.78;85.07;94670.88;1773017;81;21126;-55
2022/06/13 04:54:01;;;;;;;8.05;6.17;;;;;;;15.87;84.77;94661.67;1772458;80;20989;-53
2022/06/13 04:56:30;;;;;;;8.25;6.17;;;;;;;16.02;84.21;94663.14;1772146;79;21041;-54
2022/06/13 04:58:58;;;;;;;7.58;6.25;;;;;;;16.13;83.16;94671.59;1772278;81;21501;-54
2022/06/13 05:01:42;;;;;;;10.15;6.05;;;;;;;16.22;82.55;94674.25;1772532;79;20949;-55
2022/06/13 05:04:15;;;;;;;9.85;5.65;;;;;;;16.34;82.48;94667.00;1772217;81;21222;-55
2022/06/13 05:06:50;;;;;;;21.50;7.33;;;;;;;16.50;81.80;94660.11;1772488;79;21413;-58
2022/06/13 05:09:25;;;;;;;7.42;6.00;;;;;;;16.60;81.12;94662.28;1772047;81;21084;-58
2022/06/13 05:12:16;;;;;;;9.58;5.78;;;;;;;16.68;80.37;94657.81;1772209;81;21410;-58
2022/06/13 05:15:06;;;;;;;;;;;;;;;16.73;79.60;94661.27;1754583;81;20930;-57
2022/06/13 05:18:02;;;;;;;6.00;5.40;;;;;;;16.75;78.63;94659.41;1772557;80;21216;-58
2022/06/13 05:20:53;;;;;;;9.23;5.30;;;;;;;16.74;78.16;94663.44;1772000;80;20973;-58
2022/06/13 05:23:57;;;;;;;9.23;5.90;;;;;;;16.75;77.91;94656.63;1769665;80;20989;-58
2022/06/13 05:26:28;;;;;;;;;;;;;;;16.85;78.54;94660.76;1788818;79;20942;-58
2022/06/13 05:28:54;;;;;;;6.55;5.78;;;;;;;17.03;77.73;94657.05;1803691;79;20159;-58
2022/06/13 05:31:22;;;;;;;5.65;5.05;;;;;;;17.09;76.79;94655.08;1811148;78;21697;-58
2022/06/13 05:33:50;;;;;;;6.80;5.35;;;;;;;17.16;76.46;94657.44;1760956;81;20990;-58
2022/06/13 05:36:21;;;;;;;6.22;5.00;;;;;;;17.23;76.17;94655.59;1760054;80;21512;-58
2022/06/13 05:39:00;;;;;;;9.45;5.67;;;;;;;17.28;76.04;94655.52;1722692;81;21482;-59
2022/06/13 05:41:28;;;;;;;5.75;5.15;;;;;;;17.33;75.59;94651.40;1750002;82;21076;-58
2022/06/13 05:43:57;;;;;;;9.50;5.28;;;;;;;17.41;75.25;94654.50;1749969;80;21842;-60
2022/06/13 05:46:36;;;;;;;9.18;6.03;;;;;;;17.40;74.28;94651.59;1749686;82;20982;-59
2022/06/13 05:49:05;;;;;;;9.75;6.33;;;;;;;17.32;74.49;94644.92;1749792;82;21114;-59
2022/06/13 05:51:33;;;;;;;9.90;5.55;;;;;;;17.29;74.95;94654.27;1726560;82;20969;-59
2022/06/13 05:54:01;;;;;;;7.35;5.12;;;;;;;17.37;75.16;94652.58;1749274;80;21056;-60
2022/06/13 05:56:29;;;;;;;7.42;5.53;;;;;;;17.47;75.00;94646.98;1788224;78;21196;-61
2022/06/13 05:58:57;;;;;;;8.30;5.90;;;;;;;17.57;74.88;94644.14;1773267;78;21076;-59
2022/06/13 06:01:25;;;;;;;6.08;4.55;;;;;;;17.68;74.64;94644.23;1779663;79;21099;-58
2022/06/13 06:03:54;;;;;;;8.60;5.20;;;;;;;17.78;73.50;94639.98;1798796;79;20997;-57
2022/06/13 06:06:27;;;;;;;9.05;5.20;;;;;;;17.83;72.75;94629.55;1802163;77;20979;-61
2022/06/13 06:08:57;;;;;;;;;;;;;;;17.87;72.59;94630.84;1795320;79;21218;-59
2022/06/13 06:11:27;;;;;;;6.97;5.12;;;;;;;17.95;72.23;94630.50;1804395;78;20174;-57
2022/06/13 06:13:54;;;;;;;6.05;4.75;;;;;;;18.07;71.62;94634.11;1798817;77;21465;-60
2022/06/13 06:16:23;;;;;;;10.20;5.70;;;;;;;18.18;70.61;94630.00;1776032;78;21049;-57
2022/06/13 06:18:52;;;;;;;7.62;5.33;;;;;;;18.22;70.29;94628.48;1787631;78;21048;-59
2022/06/13 06:21:21;;;;;;;7.40;4.83;;;;;;;18.24;70.28;94626.73;1810156;78;21254;-59
2022/06/13 06:23:49;;;;;;;7.62;5.47;;;;;;;18.28;70.39;94623.75;1724372;80;21075;-57
2022/06/13 06:26:21;;;;;;;8.33;5.92;;;;;;;18.34;71.13;94621.13;1793593;78;21038;-60
2022/06/13 06:28:49;;;;;;;7.95;5.75;;;;;;;18.44;71.23;94612.66;1806502;78;21034;-59
2022/06/13 06:31:19;;;;;;;8.33;5.40;;;;;;;18.55;70.06;94615.50;1796099;78;21127;-60
2022/06/13 06:33:47;;;;;;;6.87;4.92;;;;;;;18.62;69.59;94613.61;1806312;78;21071;-57
2022/06/13 06:36:15;;;;;;;6.30;4.45;;;;;;;18.74;69.24;94608.83;1791148;78;21029;-58
2022/06/13 06:38:43;;;;;;;7.08;4.87;;;;;;;18.84;67.68;94604.56;1751630;80;21647;-58
2022/06/13 06:41:11;;;;;;;6.30;5.03;;;;;;;18.93;66.89;94603.69;1803556;78;21032;-56
2022/06/13 06:43:39;;;;;;;5.35;4.85;;;;;;;19.04;66.29;94604.34;1814871;77;21029;-55
2022/06/13 06:46:08;;;;;;;7.97;4.45;;;;;;;19.14;65.87;94602.19;1803529;78;21100;-59
2022/06/13 06:48:36;;;;;;;5.65;4.00;;;;;;;19.24;65.99;94609.09;1807338;77;20934;-59
2022/06/13 06:51:10;;;;;;;5.55;4.20;;;;;;;19.33;65.59;94596.27;1804284;78;21012;-59
2022/06/13 07:01:59;;;;;;;6.00;3.98;;;;;;;19.81;61.95;94591.79;1732493;80;20905;-56
2022/06/13 07:04:27;;;;;;;5.97;3.37;;;;;;;20.02;61.88;94592.42;1796361;79;21372;-59
2022/06/13 07:06:55;;;;;;;3.77;3.30;;;;;;;20.24;60.12;94588.16;1771382;79;21013;-58
2022/06/13 07:09:23;;;;;;;3.70;3.20;;;;;;;20.37;59.31;94587.72;1784206;78;21225;-60
2022/06/13 07:11:54;;;;;;;7.62;4.20;;;;;;;20.50;58.23;94587.15;1769348;78;21504;-58
2022/06/13 07:14:25;;;;;;;3.72;3.42;;;;;;;20.65;58.27;94585.57;1799970;78;20975;-56
2022/06/13 07:16:56;;;;;;;7.83;3.42;;;;;;;20.80;58.33;94588.02;1778243;78;21008;-58
2022/06/13 07:19:25;;;;;;;9.63;4.53;;;;;;;20.98;59.73;94576.25;1723882;81;20967;-57
2022/06/13 07:21:55;;;;;;;3.65;3.30;;;;;;;21.21;59.92;94579.01;1741466;80;21075;-58
2022/06/13 07:24:23;;;;;;;3.62;3.25;;;;;;;21.40;58.25;94584.08;1748777;80;21165;-59
2022/06/13 07:26:51;;;;;;;3.25;2.58;;;;;;;21.56;58.06;94568.56;1724649;80;21030;-66
2022/06/13 07:29:21;;;;;;;5.33;3.67;;;;;;;21.72;56.33;94568.31;1746433;81;21066;-55
2022/06/13 07:31:54;;;;;;;3.45;3.15;;;;;;;21.85;57.07;94565.64;1734724;80;21057;-60
2022/06/13 07:34:24;;;;;;;2.40;2.20;;;;;;;22.00;56.40;94568.15;1763715;80;21047;-61
2022/06/13 07:36:53;;;;;;;2.85;2.65;;;;;;;22.13;54.24;94561.27;1755263;80;21745;-56
2022/06/13 07:39:24;;;;;;;3.08;2.60;;;;;;;22.22;53.32;94558.86;1774419;78;21017;-58
2022/06/13 07:41:51;;;;;;;4.70;2.35;;;;;;;22.35;53.78;94563.17;1687064;82;20992;-59
2022/06/13 07:44:31;;;;;;;2.95;2.52;;;;;;;22.43;51.18;94562.72;1728144;80;21082;-58
2022/06/13 07:47:00;;;;;;;5.28;3.80;;;;;;;22.48;50.75;94559.08;1742713;80;21033;-57
2022/06/13 07:49:29;;;;;;;2.92;2.60;;;;;;;22.57;50.40;94556.55;1720117;80;21794;-57
2022/06/13 07:51:57;;;;;;;2.52;2.30;;;;;;;22.68;51.15;94550.14;1784534;78;20999;-60
2022/06/13 07:54:29;;;;;;;3.62;2.47;;;;;;;22.79;51.97;94544.39;1792730;79;21356;-61
2022/06/13 07:56:59;;;;;;;3.33;2.55;;;;;;;22.91;51.70;94553.41;1772706;79;21900;-60
2022/06/13 07:59:30;;;;;;;4.92;2.35;;;;;;;22.95;50.37;94549.02;1778660;79;21021;-57
2022/06/13 08:01:58;;;;;;;7.95;2.60;;;;;;;22.98;49.32;94546.54;1768414;78;21186;-58
2022/06/13 08:04:28;;;;;;;3.22;2.33;;;;;;;23.02;48.48;94544.17;1766992;79;21089;-58
2022/06/13 08:06:56;;;;;;;11.00;3.60;;;;;;;23.05;48.32;94547.98;1758140;79;21044;-58
2022/06/13 08:09:26;;;;;;;5.15;3.08;;;;;;;23.10;48.91;94547.12;1759142;79;21003;-57
2022/06/13 08:11:54;;;;;;;4.28;2.40;;;;;;;23.23;49.96;94540.95;1770531;79;21006;-57
2022/06/13 08:14:21;;;;;;;4.33;2.85;;;;;;;23.36;46.91;94545.88;1784734;79;21167;-56
2022/06/13 08:16:51;;;;;;;3.33;2.52;;;;;;;23.28;45.76;94540.12;1787537;79;21006;-59
2022/06/13 08:19:21;;;;;;;3.10;2.20;;;;;;;23.12;46.54;94542.54;1778668;79;21096;-55
2022/06/13 08:21:51;;;;;;;2.60;2.40;;;;;;;23.10;46.28;94542.92;1790250;78;21039;-57
2022/06/13 08:24:19;;;;;;;3.05;2.70;;;;;;;23.10;45.63;94538.71;1770453;79;21487;-57
2022/06/13 08:26:46;;;;;;;4.90;3.17;;;;;;;23.20;47.03;94535.66;1780425;79;21095;-60
2022/06/13 08:29:14;;;;;;;3.47;2.83;;;;;;;23.42;46.86;94536.04;1777776;79;20959;-63
2022/06/13 08:31:43;;;;;;;4.72;2.95;;;;;;;23.67;45.84;94540.23;1771097;79;21046;-57
2022/06/13 08:34:10;;;;;;;3.27;2.98;;;;;;;23.81;44.54;94530.53;1772199;79;21006;-57
2022/06/13 08:36:39;;;;;;;5.30;3.72;;;;;;;23.79;44.15;94538.72;1714116;82;22161;-59
2022/06/13 08:39:09;;;;;;;6.85;3.08;;;;;;;23.67;44.50;94531.80;1721334;82;21065;-59
2022/06/13 08:42:00;;;;;;;8.55;2.83;;;;;;;23.59;44.76;94528.09;1748319;80;21098;-58
2022/06/13 08:44:39;;;;;;;5.25;3.27;;;;;;;23.52;44.99;94530.14;1741987;81;21068;-60
2022/06/13 08:47:21;;;;;;;6.05;3.02;;;;;;;23.51;45.44;94518.03;1767005;79;21013;-58
2022/06/13 08:49:59;;;;;;;4.17;3.27;;;;;;;23.63;45.39;94520.77;1791385;79;21084;-57
2022/06/13 08:52:31;;;;;;;6.28;3.27;;;;;;;23.78;44.87;94516.80;1774328;79;21187;-57
2022/06/13 08:55:34;;;;;;;2.95;2.42;;;;;;;23.79;43.93;94514.84;1796161;78;21100;-58
2022/06/13 08:58:26;;;;;;;3.02;2.42;;;;;;;23.79;43.93;94514.84;1789839;77;21104;-59
2022/06/13 09:01:01;;;;;;;3.27;2.98;;;;;;;23.81;43.56;94508.05;1777431;78;22368;-63
2022/06/13 09:03:53;;;;;;;3.15;2.70;;;;;;;23.87;45.90;94508.73;1787514;78;21174;-56
2022/06/13 09:06:47;;;;;;;3.58;3.00;;;;;;;23.95;44.91;94497.60;1787909;78;21815;-55
2022/06/13 09:09:40;;;;;;;4.28;3.33;;;;;;;24.01;44.46;94507.45;1783958;77;20983;-59
2022/06/13 09:12:15;;;;;;;5.42;3.40;;;;;;;24.06;44.61;94499.55;1784865;78;21166;-64
2022/06/13 09:14:48;;;;;;;3.10;2.80;;;;;;;24.13;44.50;94498.25;1793685;78;21021;-62
2022/06/13 09:17:53;;;;;;;3.70;2.60;;;;;;;24.24;44.42;94493.05;1768402;79;21060;-60
2022/06/13 09:20:56;;;;;;;4.78;3.05;;;;;;;24.36;44.87;94490.13;1767928;78;21224;-60
2022/06/13 09:23:47;;;;;;;3.12;2.80;;;;;;;24.51;44.41;94491.70;1760331;79;21473;-60
2022/06/13 09:26:48;;;;;;;3.25;2.65;;;;;;;24.60;42.87;94479.38;1755535;79;21066;-56
2022/06/13 09:29:23;;;;;;;4.78;2.83;;;;;;;24.63;43.12;94476.91;1707286;82;22276;-57
2022/06/13 09:31:56;;;;;;;5.60;3.00;;;;;;;24.75;42.62;94470.38;1721822;81;21094;-60
2022/06/13 09:34:40;;;;;;;5.87;3.00;;;;;;;24.79;43.27;94466.56;1706350;80;21137;-56
2022/06/13 09:37:18;;;;;;;4.37;2.80;;;;;;;24.91;43.54;94465.76;1711400;81;21464;-55
2022/06/13 09:39:47;;;;;;;5.67;2.83;;;;;;;25.08;45.13;94452.71;1697245;81;20977;-56
2022/06/13 09:42:51;;;;;;;6.95;3.15;;;;;;;25.22;44.13;94455.58;1694928;83;21073;-59
2022/06/13 09:45:33;;;;;;;3.42;2.80;;;;;;;25.38;43.78;94450.18;1793476;78;21014;-60
2022/06/13 09:48:28;;;;;;;5.85;3.35;;;;;;;25.48;42.32;94444.91;1785950;78;21825;-58
2022/06/13 09:51:17;;;;;;;7.85;3.45;;;;;;;25.48;43.07;94441.36;1788687;79;21427;-57
2022/06/13 09:54:05;;;;;;;5.53;3.52;;;;;;;25.59;44.06;94437.59;1800865;77;21061;-59
2022/06/13 09:56:59;;;;;;;5.10;3.37;;;;;;;25.74;44.60;94439.11;1805004;78;20989;-57
2022/06/13 09:59:48;;;;;;;4.95;2.58;;;;;;;25.90;42.53;94439.34;1820343;77;21049;-60
2022/06/13 10:02:29;;;;;;;5.30;2.80;;;;;;;25.87;41.46;94435.46;1810297;77;21245;-59
2022/06/13 10:05:16;;;;;;;4.80;2.98;;;;;;;25.82;42.22;94430.71;1812497;78;21625;-59
2022/06/13 10:07:56;;;;;;;8.88;3.55;;;;;;;25.88;42.33;94427.84;1800992;78;21036;-57
2022/06/13 10:10:47;;;;;;;3.58;2.85;;;;;;;25.95;42.81;94427.15;1776264;78;20991;-61
2022/06/13 10:13:38;;;;;;;;;;;;;;;26.04;42.59;94425.22;1810394;78;21633;-63
2022/06/13 10:16:34;;;;;;;3.75;3.30;;;;;;;26.15;44.34;94419.27;1781702;78;21785;-61
2022/06/13 10:19:46;;;;;;;3.58;2.87;;;;;;;26.24;45.02;94413.86;1793940;78;21528;-56
2022/06/13 10:22:20;;;;;;;3.62;3.20;;;;;;;26.29;43.74;94411.52;1802682;78;21061;-60
2022/06/13 10:24:56;;;;;;;4.35;3.05;;;;;;;26.38;42.64;94401.78;1815276;78;20993;-57
2022/06/13 10:27:44;;;;;;;8.38;3.55;;;;;;;26.51;43.17;94391.80;1803649;78;21016;-59
2022/06/13 10:30:26;;;;;;;6.78;3.42;;;;;;;26.70;44.66;94381.67;1806983;78;21400;-58
2022/06/13 10:33:13;;;;;;;3.45;3.15;;;;;;;26.96;44.35;94384.19;1797739;78;21056;-58
2022/06/13 10:36:02;;;;;;;7.37;4.10;;;;;;;27.21;43.96;94379.52;1796325;77;21098;-58
2022/06/13 10:39:00;;;;;;;3.55;3.20;;;;;;;27.51;42.53;94378.11;1804207;77;21015;-63
2022/06/13 10:41:29;;;;;;;7.55;3.85;;;;;;;27.87;42.59;94370.81;1813077;78;21084;-58
2022/06/13 10:43:57;;;;;;;4.08;3.50;;;;;;;28.09;40.32;94375.00;1816653;78;21121;-60
2022/06/13 10:46:25;;;;;;;6.47;3.90;;;;;;;28.37;41.12;94371.24;1816565;78;20935;-57
2022/06/13 10:49:14;;;;;;;5.87;3.40;;;;;;;28.61;41.57;94373.38;1803297;78;21073;-60
2022/06/13 10:51:42;;;;;;;5.33;3.40;;;;;;;28.74;39.62;94369.56;1800579;78;21519;-57
2022/06/13 10:54:21;;;;;;;8.00;6.85;;;;;;;29.07;37.68;94367.57;1794722;78;21012;-57
2022/06/13 10:56:55;;;;;;;6.50;3.45;;;;;;;29.35;38.37;94355.08;1803493;78;21141;-58
2022/06/13 10:59:33;;;;;;;4.15;3.33;;;;;;;29.65;38.03;94354.16;1788677;77;20902;-58
2022/06/13 11:02:18;;;;;;;5.62;4.20;;;;;;;29.88;35.78;94344.02;1739466;80;21035;-60
2022/06/13 11:05:09;;;;;;;3.05;2.67;;;;;;;29.98;36.41;94347.76;1805458;77;20974;-58
2022/06/13 11:07:45;;;;;;;3.80;3.40;;;;;;;30.19;35.11;94349.56;1811880;78;22251;-59
2022/06/13 11:10:33;;;;;;;4.80;2.70;;;;;;;30.29;34.51;94333.34;1804642;77;21282;-61
2022/06/13 11:13:04;;;;;;;5.58;3.22;;;;;;;30.36;34.69;94328.22;1806511;78;20992;-58
2022/06/13 11:24:42;;;;;;;3.12;2.83;;;;;;;32.15;33.39;94318.95;1799646;78;21709;-59
2022/06/13 11:27:42;;;;;;;2.75;2.52;;;;;;;32.61;32.21;94310.23;1790908;78;21093;-59
2022/06/13 11:30:33;;;;;;;5.87;2.87;;;;;;;32.85;32.96;94307.06;1800416;78;21426;-57
2022/06/13 11:33:27;;;;;;;3.37;2.10;;;;;;;33.04;34.20;94297.69;1808911;78;20950;-58
2022/06/13 11:36:10;;;;;;;3.85;2.45;;;;;;;33.28;32.80;94300.83;1794359;78;21060;-60
2022/06/13 11:39:01;;;;;;;4.97;2.33;;;;;;;33.26;32.43;94299.27;1792129;78;21716;-61
2022/06/13 11:41:45;;;;;;;6.37;2.85;;;;;;;33.33;32.99;94296.92;1805486;77;21004;-61
2022/06/13 11:44:20;;;;;;;3.00;2.47;;;;;;;33.35;32.85;94285.65;1802735;78;21006;-59
2022/06/13 11:47:00;;;;;;;2.50;2.30;;;;;;;33.33;32.39;94291.22;1800071;78;21036;-56
2022/06/13 11:49:40;;;;;;;3.25;2.58;;;;;;;33.41;33.23;94287.48;1796602;77;21091;-58
2022/06/13 11:55:19;;;;;;;2.95;2.65;;;;;;;33.72;32.23;94283.95;1801044;77;21328;-57
2022/06/13 11:57:56;;;;;;;8.35;3.87;;;;;;;33.66;32.61;94283.52;1797910;77;21072;-57
2022/06/13 12:00:31;;;;;;;4.22;2.70;;;;;;;33.82;33.51;94280.34;1801005;77;20985;-58
2022/06/13 12:03:16;;;;;;;4.92;2.90;;;;;;;34.13;32.46;94268.23;1800751;78;21001;-56
2022/06/13 12:05:46;;;;;;;4.47;2.17;;;;;;;34.38;32.83;94269.16;1797589;77;21065;-57
2022/06/13 12:08:22;;;;;;;3.22;2.30;;;;;;;34.56;31.68;94263.96;1772372;78;21967;-59
2022/06/13 12:11:05;;;;;;;2.47;2.20;;;;;;;34.61;30.37;94264.94;1804342;77;21076;-59
2022/06/13 12:13:42;;;;;;;4.87;2.37;;;;;;;34.72;31.73;94259.98;1777773;78;21041;-57
2022/06/13 12:16:33;;;;;;;2.50;1.90;;;;;;;34.80;31.24;94248.38;1720723;80;21044;-60
2022/06/13 12:19:33;;;;;;;2.67;2.30;;;;;;;34.65;31.01;94245.95;1741054;80;22242;-59
2022/06/13 12:22:22;;;;;;;3.33;2.25;;;;;;;34.62;31.09;94244.33;1711533;82;21127;-59
2022/06/13 12:25:13;;;;;;;2.75;2.17;;;;;;;34.71;30.20;94235.61;1747440;80;21032;-59
2022/06/13 12:28:11;;;;;;;5.20;2.55;;;;;;;34.59;28.92;94236.99;1761131;80;21030;-57
2022/06/13 12:31:11;;;;;;;5.25;2.58;;;;;;;34.24;31.78;94235.38;1711938;80;21037;-57
2022/06/13 12:34:07;;;;;;;2.77;2.12;;;;;;;34.05;31.20;94235.53;1632800;85;21334;-58
2022/06/13 12:36:43;;;;;;;2.72;2.17;;;;;;;34.01;32.16;94226.03;1643149;85;21101;-58
2022/06/13 12:39:29;;;;;;;5.42;2.30;;;;;;;34.29;32.26;94214.30;1755800;78;21061;-61
2022/06/13 12:42:18;;;;;;;2.67;1.95;;;;;;;34.58;30.84;94214.06;1805122;78;21045;-57
2022/06/13 12:45:28;;;;;;;2.60;2.05;;;;;;;34.98;30.22;94210.90;1791090;78;21028;-57
2022/06/13 12:48:18;;;;;;;10.82;2.75;;;;;;;35.28;30.67;94204.88;1799311;78;21893;-58
2022/06/13 12:51:25;;;;;;;3.27;2.30;;;;;;;35.49;28.65;94205.48;1777185;79;21069;-57